sensor_id;sensor_type;location;lat;lon;timestamp;P1;durP1;ratioP1;P2;durP2;ratioP2
17773;SDS011;9011;33.236;-97.118;2023-12-14T00:02:22;9.10;;;8.60;;
17773;SDS011;9011;33.236;-97.118;2023-12-14T00:04:49;6.18;;;5.88;;
17773;SDS011;9011;33.236;-97.118;2023-12-14T00:07:17;3.60;;;3.30;;
17773;SDS011;9011;33.236;-97.118;2023-12-14T00:09:44;1.25;;;1.23;;
17773;SDS011;9011;33.236;-97.118;2023-12-14T00:12:13;4.25;;;4.03;;
17773;SDS011;9011;33.236;-97.118;2023-12-14T00:14:40;0.77;;;0.77;;
17773;SDS011;9011;33.236;-97.118;2023-12-14T00:17:08;1.60;;;1.60;;
17773;SDS011;9011;33.236;-97.118;2023-12-14T00:19:36;0.47;;;0.47;;
17773;SDS011;9011;33.236;-97.118;2023-12-14T00:22:03;0.00;;;0.00;;
17773;SDS011;9011;33.236;-97.118;2023-12-14T00:24:31;0.10;;;0.10;;
17773;SDS011;9011;33.236;-97.118;2023-12-14T00:26:58;0.13;;;0.13;;
17773;SDS011;9011;33.236;-97.118;2023-12-14T00:29:27;0.17;;;0.17;;
17773;SDS011;9011;33.236;-97.118;2023-12-14T00:31:54;0.00;;;0.00;;
17773;SDS011;9011;33.236;-97.118;2023-12-14T00:34:22;0.00;;;0.00;;
17773;SDS011;9011;33.236;-97.118;2023-12-14T00:36:49;0.00;;;0.00;;
17773;SDS011;9011;33.236;-97.118;2023-12-14T00:39:17;0.43;;;0.43;;
17773;SDS011;9011;33.236;-97.118;2023-12-14T00:41:44;0.45;;;0.38;;
17773;SDS011;9011;33.236;-97.118;2023-12-14T00:44:12;0.00;;;0.00;;
17773;SDS011;9011;33.236;-97.118;2023-12-14T00:46:40;0.28;;;0.28;;
17773;SDS011;9011;33.236;-97.118;2023-12-14T00:49:08;0.00;;;0.00;;
17773;SDS011;9011;33.236;-97.118;2023-12-14T00:51:35;0.20;;;0.20;;
17773;SDS011;9011;33.236;-97.118;2023-12-14T00:54:03;0.00;;;0.00;;
17773;SDS011;9011;33.236;-97.118;2023-12-14T00:56:31;0.00;;;0.00;;
17773;SDS011;9011;33.236;-97.118;2023-12-14T00:58:59;0.00;;;0.00;;
17773;SDS011;9011;33.236;-97.118;2023-12-14T01:01:26;0.17;;;0.17;;
17773;SDS011;9011;33.236;-97.118;2023-12-14T01:03:55;0.70;;;0.70;;
17773;SDS011;9011;33.236;-97.118;2023-12-14T01:06:22;0.00;;;0.00;;
17773;SDS011;9011;33.236;-97.118;2023-12-14T01:08:50;0.00;;;0.00;;
17773;SDS011;9011;33.236;-97.118;2023-12-14T01:11:17;0.00;;;0.00;;
17773;SDS011;9011;33.236;-97.118;2023-12-14T01:13:45;0.00;;;0.00;;
17773;SDS011;9011;33.236;-97.118;2023-12-14T01:16:12;0.00;;;0.00;;
17773;SDS011;9011;33.236;-97.118;2023-12-14T01:18:40;0.00;;;0.00;;
17773;SDS011;9011;33.236;-97.118;2023-12-14T01:21:09;0.00;;;0.00;;
17773;SDS011;9011;33.236;-97.118;2023-12-14T01:23:37;0.00;;;0.00;;
17773;SDS011;9011;33.236;-97.118;2023-12-14T01:26:05;0.08;;;0.08;;
17773;SDS011;9011;33.236;-97.118;2023-12-14T01:28:33;0.00;;;0.00;;
17773;SDS011;9011;33.236;-97.118;2023-12-14T01:31:00;0.88;;;0.88;;
17773;SDS011;9011;33.236;-97.118;2023-12-14T01:33:28;0.10;;;0.10;;
17773;SDS011;9011;33.236;-97.118;2023-12-14T01:35:55;0.00;;;0.00;;
17773;SDS011;9011;33.236;-97.118;2023-12-14T01:38:24;0.00;;;0.00;;
17773;SDS011;9011;33.236;-97.118;2023-12-14T01:40:51;0.25;;;0.25;;
17773;SDS011;9011;33.236;-97.118;2023-12-14T01:43:21;0.05;;;0.05;;
17773;SDS011;9011;33.236;-97.118;2023-12-14T01:45:48;0.00;;;0.00;;
17773;SDS011;9011;33.236;-97.118;2023-12-14T01:48:16;0.00;;;0.00;;
17773;SDS011;9011;33.236;-97.118;2023-12-14T01:50:44;0.00;;;0.00;;
17773;SDS011;9011;33.236;-97.118;2023-12-14T01:53:11;0.00;;;0.00;;
17773;SDS011;9011;33.236;-97.118;2023-12-14T01:55:40;0.08;;;0.08;;
17773;SDS011;9011;33.236;-97.118;2023-12-14T01:58:07;0.00;;;0.00;;
17773;SDS011;9011;33.236;-97.118;2023-12-14T02:00:36;0.00;;;0.00;;
17773;SDS011;9011;33.236;-97.118;2023-12-14T02:03:08;0.00;;;0.00;;
17773;SDS011;9011;33.236;-97.118;2023-12-14T02:05:36;0.00;;;0.00;;
17773;SDS011;9011;33.236;-97.118;2023-12-14T02:08:04;0.17;;;0.17;;
17773;SDS011;9011;33.236;-97.118;2023-12-14T02:10:32;0.85;;;0.85;;
17773;SDS011;9011;33.236;-97.118;2023-12-14T02:13:01;0.00;;;0.00;;
17773;SDS011;9011;33.236;-97.118;2023-12-14T02:15:29;1.65;;;0.63;;
17773;SDS011;9011;33.236;-97.118;2023-12-14T02:17:57;1.65;;;0.88;;
17773;SDS011;9011;33.236;-97.118;2023-12-14T02:20:25;0.10;;;0.10;;
17773;SDS011;9011;33.236;-97.118;2023-12-14T02:22:53;0.10;;;0.10;;
17773;SDS011;9011;33.236;-97.118;2023-12-14T02:25:21;4.72;;;0.73;;
17773;SDS011;9011;33.236;-97.118;2023-12-14T02:27:50;0.00;;;0.00;;
17773;SDS011;9011;33.236;-97.118;2023-12-14T02:30:18;0.00;;;0.00;;
17773;SDS011;9011;33.236;-97.118;2023-12-14T02:32:46;0.10;;;0.10;;
17773;SDS011;9011;33.236;-97.118;2023-12-14T02:35:13;0.00;;;0.00;;
17773;SDS011;9011;33.236;-97.118;2023-12-14T02:37:41;0.10;;;0.10;;
17773;SDS011;9011;33.236;-97.118;2023-12-14T02:40:10;0.00;;;0.00;;
17773;SDS011;9011;33.236;-97.118;2023-12-14T02:42:37;0.20;;;0.20;;
17773;SDS011;9011;33.236;-97.118;2023-12-14T02:45:06;0.00;;;0.00;;
17773;SDS011;9011;33.236;-97.118;2023-12-14T02:47:34;0.00;;;0.00;;
17773;SDS011;9011;33.236;-97.118;2023-12-14T02:50:02;0.00;;;0.00;;
17773;SDS011;9011;33.236;-97.118;2023-12-14T02:52:31;0.52;;;0.52;;
17773;SDS011;9011;33.236;-97.118;2023-12-14T02:54:58;0.05;;;0.05;;
17773;SDS011;9011;33.236;-97.118;2023-12-14T02:57:26;0.10;;;0.10;;
17773;SDS011;9011;33.236;-97.118;2023-12-14T02:59:54;0.00;;;0.00;;
17773;SDS011;9011;33.236;-97.118;2023-12-14T03:02:22;0.00;;;0.00;;
17773;SDS011;9011;33.236;-97.118;2023-12-14T03:04:49;0.10;;;0.10;;
17773;SDS011;9011;33.236;-97.118;2023-12-14T03:07:17;0.10;;;0.10;;
17773;SDS011;9011;33.236;-97.118;2023-12-14T03:09:45;0.00;;;0.00;;
17773;SDS011;9011;33.236;-97.118;2023-12-14T03:12:13;0.32;;;0.32;;
17773;SDS011;9011;33.236;-97.118;2023-12-14T03:14:41;0.13;;;0.13;;
17773;SDS011;9011;33.236;-97.118;2023-12-14T03:17:09;0.77;;;0.77;;
17773;SDS011;9011;33.236;-97.118;2023-12-14T03:19:38;0.00;;;0.00;;
17773;SDS011;9011;33.236;-97.118;2023-12-14T03:22:06;0.00;;;0.00;;
17773;SDS011;9011;33.236;-97.118;2023-12-14T03:24:34;0.00;;;0.00;;
17773;SDS011;9011;33.236;-97.118;2023-12-14T03:27:02;0.10;;;0.10;;
17773;SDS011;9011;33.236;-97.118;2023-12-14T03:29:31;0.57;;;0.57;;
17773;SDS011;9011;33.236;-97.118;2023-12-14T03:32:00;0.00;;;0.00;;
17773;SDS011;9011;33.236;-97.118;2023-12-14T03:34:28;0.00;;;0.00;;
17773;SDS011;9011;33.236;-97.118;2023-12-14T03:36:55;0.13;;;0.13;;
17773;SDS011;9011;33.236;-97.118;2023-12-14T03:39:24;0.00;;;0.00;;
17773;SDS011;9011;33.236;-97.118;2023-12-14T03:41:53;0.52;;;0.35;;
17773;SDS011;9011;33.236;-97.118;2023-12-14T03:44:20;0.05;;;0.05;;
17773;SDS011;9011;33.236;-97.118;2023-12-14T03:46:49;0.65;;;0.65;;
17773;SDS011;9011;33.236;-97.118;2023-12-14T03:49:18;0.03;;;0.03;;
17773;SDS011;9011;33.236;-97.118;2023-12-14T03:51:45;0.45;;;0.45;;
17773;SDS011;9011;33.236;-97.118;2023-12-14T03:54:13;0.10;;;0.10;;
17773;SDS011;9011;33.236;-97.118;2023-12-14T03:56:40;0.03;;;0.03;;
17773;SDS011;9011;33.236;-97.118;2023-12-14T03:59:08;0.00;;;0.00;;
17773;SDS011;9011;33.236;-97.118;2023-12-14T04:01:36;0.00;;;0.00;;
17773;SDS011;9011;33.236;-97.118;2023-12-14T04:04:05;0.00;;;0.00;;
17773;SDS011;9011;33.236;-97.118;2023-12-14T04:06:33;0.00;;;0.00;;
17773;SDS011;9011;33.236;-97.118;2023-12-14T04:09:01;0.00;;;0.00;;
17773;SDS011;9011;33.236;-97.118;2023-12-14T04:11:29;0.00;;;0.00;;
17773;SDS011;9011;33.236;-97.118;2023-12-14T04:13:57;0.28;;;0.28;;
17773;SDS011;9011;33.236;-97.118;2023-12-14T04:16:25;0.10;;;0.10;;
17773;SDS011;9011;33.236;-97.118;2023-12-14T04:18:53;0.00;;;0.00;;
17773;SDS011;9011;33.236;-97.118;2023-12-14T04:21:21;0.40;;;0.40;;
17773;SDS011;9011;33.236;-97.118;2023-12-14T04:23:50;0.20;;;0.20;;
17773;SDS011;9011;33.236;-97.118;2023-12-14T04:26:18;0.43;;;0.43;;
17773;SDS011;9011;33.236;-97.118;2023-12-14T04:28:45;0.00;;;0.00;;
17773;SDS011;9011;33.236;-97.118;2023-12-14T04:31:13;0.20;;;0.20;;
17773;SDS011;9011;33.236;-97.118;2023-12-14T04:33:41;0.00;;;0.00;;
17773;SDS011;9011;33.236;-97.118;2023-12-14T04:36:09;0.00;;;0.00;;
17773;SDS011;9011;33.236;-97.118;2023-12-14T04:38:36;0.00;;;0.00;;
17773;SDS011;9011;33.236;-97.118;2023-12-14T04:41:05;0.25;;;0.25;;
17773;SDS011;9011;33.236;-97.118;2023-12-14T04:43:33;0.00;;;0.00;;
17773;SDS011;9011;33.236;-97.118;2023-12-14T04:46:01;0.20;;;0.20;;
17773;SDS011;9011;33.236;-97.118;2023-12-14T04:48:28;0.13;;;0.13;;
17773;SDS011;9011;33.236;-97.118;2023-12-14T04:50:56;0.10;;;0.10;;
17773;SDS011;9011;33.236;-97.118;2023-12-14T04:53:23;0.05;;;0.05;;
17773;SDS011;9011;33.236;-97.118;2023-12-14T04:55:51;0.00;;;0.00;;
17773;SDS011;9011;33.236;-97.118;2023-12-14T04:58:20;0.20;;;0.20;;
17773;SDS011;9011;33.236;-97.118;2023-12-14T05:00:47;0.00;;;0.00;;
17773;SDS011;9011;33.236;-97.118;2023-12-14T05:03:15;0.00;;;0.00;;
17773;SDS011;9011;33.236;-97.118;2023-12-14T05:05:43;0.00;;;0.00;;
17773;SDS011;9011;33.236;-97.118;2023-12-14T05:08:10;0.20;;;0.20;;
17773;SDS011;9011;33.236;-97.118;2023-12-14T05:10:38;0.50;;;0.30;;
17773;SDS011;9011;33.236;-97.118;2023-12-14T05:13:05;0.10;;;0.10;;
17773;SDS011;9011;33.236;-97.118;2023-12-14T05:15:34;0.00;;;0.00;;
17773;SDS011;9011;33.236;-97.118;2023-12-14T05:18:02;0.00;;;0.00;;
17773;SDS011;9011;33.236;-97.118;2023-12-14T05:20:29;0.20;;;0.20;;
17773;SDS011;9011;33.236;-97.118;2023-12-14T05:22:57;0.00;;;0.00;;
17773;SDS011;9011;33.236;-97.118;2023-12-14T05:25:24;0.40;;;0.40;;
17773;SDS011;9011;33.236;-97.118;2023-12-14T05:27:52;0.00;;;0.00;;
17773;SDS011;9011;33.236;-97.118;2023-12-14T05:30:19;0.03;;;0.03;;
17773;SDS011;9011;33.236;-97.118;2023-12-14T05:32:48;0.22;;;0.22;;
17773;SDS011;9011;33.236;-97.118;2023-12-14T05:35:15;0.30;;;0.30;;
17773;SDS011;9011;33.236;-97.118;2023-12-14T05:37:43;0.00;;;0.00;;
17773;SDS011;9011;33.236;-97.118;2023-12-14T05:40:11;0.13;;;0.13;;
17773;SDS011;9011;33.236;-97.118;2023-12-14T05:42:38;0.00;;;0.00;;
17773;SDS011;9011;33.236;-97.118;2023-12-14T05:45:07;0.00;;;0.00;;
17773;SDS011;9011;33.236;-97.118;2023-12-14T05:47:35;0.45;;;0.45;;
17773;SDS011;9011;33.236;-97.118;2023-12-14T05:50:04;0.00;;;0.00;;
17773;SDS011;9011;33.236;-97.118;2023-12-14T05:52:34;0.00;;;0.00;;
17773;SDS011;9011;33.236;-97.118;2023-12-14T05:55:02;0.00;;;0.00;;
17773;SDS011;9011;33.236;-97.118;2023-12-14T05:57:30;0.13;;;0.10;;
17773;SDS011;9011;33.236;-97.118;2023-12-14T05:59:58;0.00;;;0.00;;
17773;SDS011;9011;33.236;-97.118;2023-12-14T06:02:25;0.00;;;0.00;;
17773;SDS011;9011;33.236;-97.118;2023-12-14T06:04:53;5.80;;;0.50;;
17773;SDS011;9011;33.236;-97.118;2023-12-14T06:07:24;0.00;;;0.00;;
17773;SDS011;9011;33.236;-97.118;2023-12-14T06:09:51;0.17;;;0.17;;
17773;SDS011;9011;33.236;-97.118;2023-12-14T06:12:19;0.33;;;0.33;;
17773;SDS011;9011;33.236;-97.118;2023-12-14T06:14:46;0.00;;;0.00;;
17773;SDS011;9011;33.236;-97.118;2023-12-14T06:17:15;0.20;;;0.20;;
17773;SDS011;9011;33.236;-97.118;2023-12-14T06:19:43;0.00;;;0.00;;
17773;SDS011;9011;33.236;-97.118;2023-12-14T06:22:10;0.00;;;0.00;;
17773;SDS011;9011;33.236;-97.118;2023-12-14T06:24:39;0.00;;;0.00;;
17773;SDS011;9011;33.236;-97.118;2023-12-14T06:27:07;0.10;;;0.10;;
17773;SDS011;9011;33.236;-97.118;2023-12-14T06:29:35;0.00;;;0.00;;
17773;SDS011;9011;33.236;-97.118;2023-12-14T06:32:03;0.73;;;0.73;;
17773;SDS011;9011;33.236;-97.118;2023-12-14T06:34:31;0.93;;;0.60;;
17773;SDS011;9011;33.236;-97.118;2023-12-14T06:36:59;0.00;;;0.00;;
17773;SDS011;9011;33.236;-97.118;2023-12-14T06:39:28;0.47;;;0.47;;
17773;SDS011;9011;33.236;-97.118;2023-12-14T06:41:57;0.33;;;0.33;;
17773;SDS011;9011;33.236;-97.118;2023-12-14T06:44:24;0.00;;;0.00;;
17773;SDS011;9011;33.236;-97.118;2023-12-14T06:46:53;0.00;;;0.00;;
17773;SDS011;9011;33.236;-97.118;2023-12-14T06:49:21;0.03;;;0.03;;
17773;SDS011;9011;33.236;-97.118;2023-12-14T06:51:49;0.00;;;0.00;;
17773;SDS011;9011;33.236;-97.118;2023-12-14T06:54:16;0.10;;;0.10;;
17773;SDS011;9011;33.236;-97.118;2023-12-14T06:56:44;0.20;;;0.20;;
17773;SDS011;9011;33.236;-97.118;2023-12-14T06:59:13;0.20;;;0.20;;
17773;SDS011;9011;33.236;-97.118;2023-12-14T07:01:41;0.87;;;0.83;;
17773;SDS011;9011;33.236;-97.118;2023-12-14T07:04:08;0.00;;;0.00;;
17773;SDS011;9011;33.236;-97.118;2023-12-14T07:06:36;0.00;;;0.00;;
17773;SDS011;9011;33.236;-97.118;2023-12-14T07:09:04;0.00;;;0.00;;
17773;SDS011;9011;33.236;-97.118;2023-12-14T07:11:31;0.00;;;0.00;;
17773;SDS011;9011;33.236;-97.118;2023-12-14T07:13:59;0.10;;;0.10;;
17773;SDS011;9011;33.236;-97.118;2023-12-14T07:16:27;0.00;;;0.00;;
17773;SDS011;9011;33.236;-97.118;2023-12-14T07:18:54;0.40;;;0.40;;
17773;SDS011;9011;33.236;-97.118;2023-12-14T07:21:22;0.00;;;0.00;;
17773;SDS011;9011;33.236;-97.118;2023-12-14T07:23:49;0.00;;;0.00;;
17773;SDS011;9011;33.236;-97.118;2023-12-14T07:26:17;0.00;;;0.00;;
17773;SDS011;9011;33.236;-97.118;2023-12-14T07:28:45;0.00;;;0.00;;
17773;SDS011;9011;33.236;-97.118;2023-12-14T07:31:12;0.00;;;0.00;;
17773;SDS011;9011;33.236;-97.118;2023-12-14T07:33:41;0.00;;;0.00;;
17773;SDS011;9011;33.236;-97.118;2023-12-14T07:36:09;0.00;;;0.00;;
17773;SDS011;9011;33.236;-97.118;2023-12-14T07:38:36;0.10;;;0.10;;
17773;SDS011;9011;33.236;-97.118;2023-12-14T07:41:04;0.00;;;0.00;;
17773;SDS011;9011;33.236;-97.118;2023-12-14T07:43:31;0.00;;;0.00;;
17773;SDS011;9011;33.236;-97.118;2023-12-14T07:45:58;0.00;;;0.00;;
17773;SDS011;9011;33.236;-97.118;2023-12-14T07:48:26;0.10;;;0.10;;
17773;SDS011;9011;33.236;-97.118;2023-12-14T07:50:55;0.00;;;0.00;;
17773;SDS011;9011;33.236;-97.118;2023-12-14T07:53:23;0.00;;;0.00;;
17773;SDS011;9011;33.236;-97.118;2023-12-14T07:55:51;0.00;;;0.00;;
17773;SDS011;9011;33.236;-97.118;2023-12-14T07:58:19;0.10;;;0.10;;
17773;SDS011;9011;33.236;-97.118;2023-12-14T08:00:47;0.10;;;0.10;;
17773;SDS011;9011;33.236;-97.118;2023-12-14T08:03:14;0.00;;;0.00;;
17773;SDS011;9011;33.236;-97.118;2023-12-14T08:05:42;0.00;;;0.00;;
17773;SDS011;9011;33.236;-97.118;2023-12-14T08:08:10;0.10;;;0.10;;
17773;SDS011;9011;33.236;-97.118;2023-12-14T08:10:38;0.00;;;0.00;;
17773;SDS011;9011;33.236;-97.118;2023-12-14T08:13:05;0.00;;;0.00;;
17773;SDS011;9011;33.236;-97.118;2023-12-14T08:15:33;0.00;;;0.00;;
17773;SDS011;9011;33.236;-97.118;2023-12-14T08:18:01;0.00;;;0.00;;
17773;SDS011;9011;33.236;-97.118;2023-12-14T08:20:29;0.00;;;0.00;;
17773;SDS011;9011;33.236;-97.118;2023-12-14T08:22:57;0.00;;;0.00;;
17773;SDS011;9011;33.236;-97.118;2023-12-14T08:25:25;0.00;;;0.00;;
17773;SDS011;9011;33.236;-97.118;2023-12-14T08:27:53;0.00;;;0.00;;
17773;SDS011;9011;33.236;-97.118;2023-12-14T08:30:21;0.07;;;0.07;;
17773;SDS011;9011;33.236;-97.118;2023-12-14T08:32:49;0.00;;;0.00;;
17773;SDS011;9011;33.236;-97.118;2023-12-14T08:35:16;0.00;;;0.00;;
17773;SDS011;9011;33.236;-97.118;2023-12-14T08:37:44;0.00;;;0.00;;
17773;SDS011;9011;33.236;-97.118;2023-12-14T08:40:12;0.00;;;0.00;;
17773;SDS011;9011;33.236;-97.118;2023-12-14T08:42:40;0.00;;;0.00;;
17773;SDS011;9011;33.236;-97.118;2023-12-14T08:45:08;0.00;;;0.00;;
17773;SDS011;9011;33.236;-97.118;2023-12-14T08:47:37;0.00;;;0.00;;
17773;SDS011;9011;33.236;-97.118;2023-12-14T08:50:05;0.00;;;0.00;;
17773;SDS011;9011;33.236;-97.118;2023-12-14T08:52:34;0.00;;;0.00;;
17773;SDS011;9011;33.236;-97.118;2023-12-14T08:55:02;0.40;;;0.40;;
17773;SDS011;9011;33.236;-97.118;2023-12-14T08:57:30;2.37;;;1.03;;
17773;SDS011;9011;33.236;-97.118;2023-12-14T08:59:58;0.00;;;0.00;;
17773;SDS011;9011;33.236;-97.118;2023-12-14T09:02:26;0.00;;;0.00;;
17773;SDS011;9011;33.236;-97.118;2023-12-14T09:04:53;0.10;;;0.10;;
17773;SDS011;9011;33.236;-97.118;2023-12-14T09:07:21;0.27;;;0.27;;
17773;SDS011;9011;33.236;-97.118;2023-12-14T09:09:48;0.00;;;0.00;;
17773;SDS011;9011;33.236;-97.118;2023-12-14T09:12:16;0.00;;;0.00;;
17773;SDS011;9011;33.236;-97.118;2023-12-14T09:14:43;0.10;;;0.10;;
17773;SDS011;9011;33.236;-97.118;2023-12-14T09:17:12;0.00;;;0.00;;
17773;SDS011;9011;33.236;-97.118;2023-12-14T09:19:39;0.00;;;0.00;;
17773;SDS011;9011;33.236;-97.118;2023-12-14T09:22:07;0.37;;;0.37;;
17773;SDS011;9011;33.236;-97.118;2023-12-14T09:24:34;0.00;;;0.00;;
17773;SDS011;9011;33.236;-97.118;2023-12-14T09:27:02;0.00;;;0.00;;
17773;SDS011;9011;33.236;-97.118;2023-12-14T09:29:31;0.00;;;0.00;;
17773;SDS011;9011;33.236;-97.118;2023-12-14T09:31:58;0.00;;;0.00;;
17773;SDS011;9011;33.236;-97.118;2023-12-14T09:34:27;0.00;;;0.00;;
17773;SDS011;9011;33.236;-97.118;2023-12-14T09:36:54;0.00;;;0.00;;
17773;SDS011;9011;33.236;-97.118;2023-12-14T09:39:22;0.87;;;0.87;;
17773;SDS011;9011;33.236;-97.118;2023-12-14T09:41:50;0.37;;;0.37;;
17773;SDS011;9011;33.236;-97.118;2023-12-14T09:44:17;0.10;;;0.10;;
17773;SDS011;9011;33.236;-97.118;2023-12-14T09:46:45;0.00;;;0.00;;
17773;SDS011;9011;33.236;-97.118;2023-12-14T09:49:15;0.00;;;0.00;;
17773;SDS011;9011;33.236;-97.118;2023-12-14T09:51:44;0.00;;;0.00;;
17773;SDS011;9011;33.236;-97.118;2023-12-14T09:54:12;0.00;;;0.00;;
17773;SDS011;9011;33.236;-97.118;2023-12-14T09:56:45;0.00;;;0.00;;
17773;SDS011;9011;33.236;-97.118;2023-12-14T09:59:13;0.00;;;0.00;;
17773;SDS011;9011;33.236;-97.118;2023-12-14T10:01:41;0.00;;;0.00;;
17773;SDS011;9011;33.236;-97.118;2023-12-14T10:04:09;0.00;;;0.00;;
17773;SDS011;9011;33.236;-97.118;2023-12-14T10:06:38;0.10;;;0.10;;
17773;SDS011;9011;33.236;-97.118;2023-12-14T10:09:07;0.10;;;0.10;;
17773;SDS011;9011;33.236;-97.118;2023-12-14T10:11:37;0.00;;;0.00;;
17773;SDS011;9011;33.236;-97.118;2023-12-14T10:14:10;0.00;;;0.00;;
17773;SDS011;9011;33.236;-97.118;2023-12-14T10:16:47;0.10;;;0.10;;
17773;SDS011;9011;33.236;-97.118;2023-12-14T10:19:16;0.00;;;0.00;;
17773;SDS011;9011;33.236;-97.118;2023-12-14T10:21:45;0.00;;;0.00;;
17773;SDS011;9011;33.236;-97.118;2023-12-14T10:24:14;0.00;;;0.00;;
17773;SDS011;9011;33.236;-97.118;2023-12-14T10:26:43;0.30;;;0.30;;
17773;SDS011;9011;33.236;-97.118;2023-12-14T10:29:11;0.00;;;0.00;;
17773;SDS011;9011;33.236;-97.118;2023-12-14T10:31:39;0.00;;;0.00;;
17773;SDS011;9011;33.236;-97.118;2023-12-14T10:34:08;0.10;;;0.10;;
17773;SDS011;9011;33.236;-97.118;2023-12-14T10:36:37;0.00;;;0.00;;
17773;SDS011;9011;33.236;-97.118;2023-12-14T10:39:06;0.00;;;0.00;;
17773;SDS011;9011;33.236;-97.118;2023-12-14T10:41:35;0.07;;;0.07;;
17773;SDS011;9011;33.236;-97.118;2023-12-14T10:44:04;0.00;;;0.00;;
17773;SDS011;9011;33.236;-97.118;2023-12-14T10:46:33;0.00;;;0.00;;
17773;SDS011;9011;33.236;-97.118;2023-12-14T10:49:01;0.60;;;0.60;;
17773;SDS011;9011;33.236;-97.118;2023-12-14T10:51:29;0.20;;;0.20;;
17773;SDS011;9011;33.236;-97.118;2023-12-14T10:53:57;0.10;;;0.10;;
17773;SDS011;9011;33.236;-97.118;2023-12-14T10:56:24;0.00;;;0.00;;
17773;SDS011;9011;33.236;-97.118;2023-12-14T10:58:54;0.00;;;0.00;;
17773;SDS011;9011;33.236;-97.118;2023-12-14T11:01:23;0.00;;;0.00;;
17773;SDS011;9011;33.236;-97.118;2023-12-14T11:03:53;0.10;;;0.10;;
17773;SDS011;9011;33.236;-97.118;2023-12-14T11:06:27;0.00;;;0.00;;
17773;SDS011;9011;33.236;-97.118;2023-12-14T11:08:56;0.00;;;0.00;;
17773;SDS011;9011;33.236;-97.118;2023-12-14T11:11:27;0.47;;;0.47;;
17773;SDS011;9011;33.236;-97.118;2023-12-14T11:13:56;0.00;;;0.00;;
17773;SDS011;9011;33.236;-97.118;2023-12-14T11:16:26;0.20;;;0.20;;
17773;SDS011;9011;33.236;-97.118;2023-12-14T11:22:11;0.00;;;0.00;;
17773;SDS011;9011;33.236;-97.118;2023-12-14T11:24:52;0.10;;;0.10;;
17773;SDS011;9011;33.236;-97.118;2023-12-14T11:27:22;0.00;;;0.00;;
17773;SDS011;9011;33.236;-97.118;2023-12-14T11:29:55;0.00;;;0.00;;
17773;SDS011;9011;33.236;-97.118;2023-12-14T11:32:24;0.00;;;0.00;;
17773;SDS011;9011;33.236;-97.118;2023-12-14T11:34:55;0.00;;;0.00;;
17773;SDS011;9011;33.236;-97.118;2023-12-14T11:37:23;0.00;;;0.00;;
17773;SDS011;9011;33.236;-97.118;2023-12-14T11:39:51;0.00;;;0.00;;
17773;SDS011;9011;33.236;-97.118;2023-12-14T11:42:20;0.00;;;0.00;;
17773;SDS011;9011;33.236;-97.118;2023-12-14T11:44:48;0.00;;;0.00;;
17773;SDS011;9011;33.236;-97.118;2023-12-14T11:47:16;0.00;;;0.00;;
17773;SDS011;9011;33.236;-97.118;2023-12-14T11:49:44;0.00;;;0.00;;
17773;SDS011;9011;33.236;-97.118;2023-12-14T11:52:12;0.20;;;0.20;;
17773;SDS011;9011;33.236;-97.118;2023-12-14T11:54:39;0.00;;;0.00;;
17773;SDS011;9011;33.236;-97.118;2023-12-14T11:57:07;0.10;;;0.10;;
17773;SDS011;9011;33.236;-97.118;2023-12-14T11:59:36;0.00;;;0.00;;
17773;SDS011;9011;33.236;-97.118;2023-12-14T12:02:04;0.10;;;0.10;;
17773;SDS011;9011;33.236;-97.118;2023-12-14T12:04:33;0.00;;;0.00;;
17773;SDS011;9011;33.236;-97.118;2023-12-14T12:07:01;0.00;;;0.00;;
17773;SDS011;9011;33.236;-97.118;2023-12-14T12:09:33;0.00;;;0.00;;
17773;SDS011;9011;33.236;-97.118;2023-12-14T12:12:06;0.00;;;0.00;;
17773;SDS011;9011;33.236;-97.118;2023-12-14T12:14:35;0.30;;;0.30;;
17773;SDS011;9011;33.236;-97.118;2023-12-14T12:17:03;0.20;;;0.20;;
17773;SDS011;9011;33.236;-97.118;2023-12-14T12:19:33;0.00;;;0.00;;
17773;SDS011;9011;33.236;-97.118;2023-12-14T12:22:01;0.00;;;0.00;;
17773;SDS011;9011;33.236;-97.118;2023-12-14T12:24:29;0.00;;;0.00;;
17773;SDS011;9011;33.236;-97.118;2023-12-14T12:26:57;0.00;;;0.00;;
17773;SDS011;9011;33.236;-97.118;2023-12-14T12:29:25;0.00;;;0.00;;
17773;SDS011;9011;33.236;-97.118;2023-12-14T12:31:52;0.00;;;0.00;;
17773;SDS011;9011;33.236;-97.118;2023-12-14T12:34:20;0.00;;;0.00;;
17773;SDS011;9011;33.236;-97.118;2023-12-14T12:36:48;0.00;;;0.00;;
17773;SDS011;9011;33.236;-97.118;2023-12-14T12:39:16;0.00;;;0.00;;
17773;SDS011;9011;33.236;-97.118;2023-12-14T12:41:44;0.00;;;0.00;;
17773;SDS011;9011;33.236;-97.118;2023-12-14T12:44:11;0.00;;;0.00;;
17773;SDS011;9011;33.236;-97.118;2023-12-14T12:46:39;0.00;;;0.00;;
17773;SDS011;9011;33.236;-97.118;2023-12-14T12:49:06;0.10;;;0.10;;
17773;SDS011;9011;33.236;-97.118;2023-12-14T12:51:34;0.00;;;0.00;;
17773;SDS011;9011;33.236;-97.118;2023-12-14T12:54:02;0.10;;;0.10;;
17773;SDS011;9011;33.236;-97.118;2023-12-14T12:56:30;0.10;;;0.10;;
17773;SDS011;9011;33.236;-97.118;2023-12-14T12:58:58;0.40;;;0.40;;
17773;SDS011;9011;33.236;-97.118;2023-12-14T13:01:25;0.47;;;0.47;;
17773;SDS011;9011;33.236;-97.118;2023-12-14T13:03:53;0.10;;;0.10;;
17773;SDS011;9011;33.236;-97.118;2023-12-14T13:06:23;0.10;;;0.10;;
17773;SDS011;9011;33.236;-97.118;2023-12-14T13:08:51;0.00;;;0.00;;
17773;SDS011;9011;33.236;-97.118;2023-12-14T13:11:20;0.77;;;0.77;;
17773;SDS011;9011;33.236;-97.118;2023-12-14T13:13:48;0.00;;;0.00;;
17773;SDS011;9011;33.236;-97.118;2023-12-14T13:16:15;0.10;;;0.10;;
17773;SDS011;9011;33.236;-97.118;2023-12-14T13:18:43;1.33;;;1.30;;
17773;SDS011;9011;33.236;-97.118;2023-12-14T13:21:11;3.20;;;3.10;;
17773;SDS011;9011;33.236;-97.118;2023-12-14T13:23:39;0.30;;;0.30;;
17773;SDS011;9011;33.236;-97.118;2023-12-14T13:26:07;0.00;;;0.00;;
17773;SDS011;9011;33.236;-97.118;2023-12-14T13:28:35;0.00;;;0.00;;
17773;SDS011;9011;33.236;-97.118;2023-12-14T13:31:04;0.00;;;0.00;;
17773;SDS011;9011;33.236;-97.118;2023-12-14T13:33:31;0.00;;;0.00;;
17773;SDS011;9011;33.236;-97.118;2023-12-14T13:35:59;0.00;;;0.00;;
17773;SDS011;9011;33.236;-97.118;2023-12-14T13:38:26;0.00;;;0.00;;
17773;SDS011;9011;33.236;-97.118;2023-12-14T13:40:54;0.10;;;0.10;;
17773;SDS011;9011;33.236;-97.118;2023-12-14T13:43:22;0.00;;;0.00;;
17773;SDS011;9011;33.236;-97.118;2023-12-14T13:45:50;0.00;;;0.00;;
17773;SDS011;9011;33.236;-97.118;2023-12-14T13:48:20;0.00;;;0.00;;
17773;SDS011;9011;33.236;-97.118;2023-12-14T13:50:48;0.63;;;0.60;;
17773;SDS011;9011;33.236;-97.118;2023-12-14T13:53:15;0.10;;;0.10;;
17773;SDS011;9011;33.236;-97.118;2023-12-14T13:55:43;0.00;;;0.00;;
17773;SDS011;9011;33.236;-97.118;2023-12-14T13:58:11;0.60;;;0.60;;
17773;SDS011;9011;33.236;-97.118;2023-12-14T14:00:39;0.00;;;0.00;;
17773;SDS011;9011;33.236;-97.118;2023-12-14T14:03:07;0.30;;;0.30;;
17773;SDS011;9011;33.236;-97.118;2023-12-14T14:05:35;0.20;;;0.20;;
17773;SDS011;9011;33.236;-97.118;2023-12-14T14:08:03;0.00;;;0.00;;
17773;SDS011;9011;33.236;-97.118;2023-12-14T14:10:30;0.33;;;0.33;;
17773;SDS011;9011;33.236;-97.118;2023-12-14T14:12:58;0.00;;;0.00;;
17773;SDS011;9011;33.236;-97.118;2023-12-14T14:15:26;0.00;;;0.00;;
17773;SDS011;9011;33.236;-97.118;2023-12-14T14:17:53;0.47;;;0.47;;
17773;SDS011;9011;33.236;-97.118;2023-12-14T14:20:22;0.00;;;0.00;;
17773;SDS011;9011;33.236;-97.118;2023-12-14T14:22:50;0.10;;;0.10;;
17773;SDS011;9011;33.236;-97.118;2023-12-14T14:25:17;0.00;;;0.00;;
17773;SDS011;9011;33.236;-97.118;2023-12-14T14:27:45;1.13;;;1.13;;
17773;SDS011;9011;33.236;-97.118;2023-12-14T14:30:13;0.00;;;0.00;;
17773;SDS011;9011;33.236;-97.118;2023-12-14T14:32:41;0.00;;;0.00;;
17773;SDS011;9011;33.236;-97.118;2023-12-14T14:35:09;0.00;;;0.00;;
17773;SDS011;9011;33.236;-97.118;2023-12-14T14:37:37;0.10;;;0.10;;
17773;SDS011;9011;33.236;-97.118;2023-12-14T14:40:05;0.10;;;0.10;;
17773;SDS011;9011;33.236;-97.118;2023-12-14T14:42:34;0.00;;;0.00;;